sensor_id;sensor_type;location;lat;lon;timestamp;pressure;altitude;pressure_sealevel;temperature;humidity
5917;BME280;2984;42.656;23.300;2023-01-08T00:01:41;94968.03;;;8.37;50.17
5917;BME280;2984;42.656;23.300;2023-01-08T00:04:10;94936.31;;;9.02;51.37
5917;BME280;2984;42.656;23.300;2023-01-08T00:06:38;94972.34;;;10.06;47.64
5917;BME280;2984;42.656;23.300;2023-01-08T00:09:08;94952.09;;;10.31;46.24
5917;BME280;2984;42.656;23.300;2023-01-08T00:11:37;94952.09;;;10.68;46.61
5917;BME280;2984;42.656;23.300;2023-01-08T00:14:07;94962.63;;;11.06;47.24
5917;BME280;2984;42.656;23.300;2023-01-08T00:16:38;94925.06;;;11.05;47.30
5917;BME280;2984;42.656;23.300;2023-01-08T00:19:07;94972.78;;;11.13;42.76
5917;BME280;2984;42.656;23.300;2023-01-08T00:21:36;94957.75;;;10.13;43.77
5917;BME280;2984;42.656;23.300;2023-01-08T00:24:06;94964.59;;;8.39;47.48
5917;BME280;2984;42.656;23.300;2023-01-08T00:26:34;94967.75;;;7.13;50.49
5917;BME280;2984;42.656;23.300;2023-01-08T00:29:04;94963.69;;;6.34;52.02
5917;BME280;2984;42.656;23.300;2023-01-08T00:31:33;94965.63;;;5.54;56.19
5917;BME280;2984;42.656;23.300;2023-01-08T00:34:04;94959.34;;;5.92;55.56
5917;BME280;2984;42.656;23.300;2023-01-08T00:36:33;94914.88;;;5.38;54.93
5917;BME280;2984;42.656;23.300;2023-01-08T00:39:01;94951.13;;;5.46;55.70
5917;BME280;2984;42.656;23.300;2023-01-08T00:41:31;94943.31;;;5.07;57.05
5917;BME280;2984;42.656;23.300;2023-01-08T00:43:59;94967.84;;;5.18;56.92
5917;BME280;2984;42.656;23.300;2023-01-08T00:46:28;94958.78;;;4.59;58.61
5917;BME280;2984;42.656;23.300;2023-01-08T00:48:57;94961.34;;;4.67;58.63
5917;BME280;2984;42.656;23.300;2023-01-08T00:51:28;94966.72;;;4.51;58.85
5917;BME280;2984;42.656;23.300;2023-01-08T00:53:56;94970.25;;;4.40;59.25
5917;BME280;2984;42.656;23.300;2023-01-08T00:56:25;94962.56;;;4.52;58.89
5917;BME280;2984;42.656;23.300;2023-01-08T00:58:54;94939.16;;;4.59;58.24
5917;BME280;2984;42.656;23.300;2023-01-08T01:01:23;94963.50;;;6.58;60.18
5917;BME280;2984;42.656;23.300;2023-01-08T01:03:52;94970.47;;;7.55;55.42
5917;BME280;2984;42.656;23.300;2023-01-08T01:06:21;94906.69;;;7.32;52.38
5917;BME280;2984;42.656;23.300;2023-01-08T01:08:52;94969.72;;;8.13;51.01
5917;BME280;2984;42.656;23.300;2023-01-08T01:11:23;94977.94;;;8.23;49.60
5917;BME280;2984;42.656;23.300;2023-01-08T01:13:53;94953.69;;;9.30;53.79
5917;BME280;2984;42.656;23.300;2023-01-08T01:16:22;94960.88;;;9.66;47.37
5917;BME280;2984;42.656;23.300;2023-01-08T01:18:52;94954.72;;;10.25;49.40
5917;BME280;2984;42.656;23.300;2023-01-08T01:21:24;94963.75;;;10.04;44.55
5917;BME280;2984;42.656;23.300;2023-01-08T01:23:58;94967.53;;;10.46;49.04
5917;BME280;2984;42.656;23.300;2023-01-08T01:26:28;94964.56;;;9.53;44.04
5917;BME280;2984;42.656;23.300;2023-01-08T01:28:57;94946.28;;;9.05;50.24
5917;BME280;2984;42.656;23.300;2023-01-08T01:31:28;94954.56;;;10.21;50.50
5917;BME280;2984;42.656;23.300;2023-01-08T01:33:57;94965.03;;;10.74;49.64
5917;BME280;2984;42.656;23.300;2023-01-08T01:36:26;94951.16;;;9.71;43.11
5917;BME280;2984;42.656;23.300;2023-01-08T01:38:57;94953.53;;;7.25;48.99
5917;BME280;2984;42.656;23.300;2023-01-08T01:41:29;94919.06;;;6.15;50.90
5917;BME280;2984;42.656;23.300;2023-01-08T01:43:59;94953.81;;;5.69;52.90
5917;BME280;2984;42.656;23.300;2023-01-08T01:46:35;94933.22;;;5.02;54.27
5917;BME280;2984;42.656;23.300;2023-01-08T01:49:07;94953.81;;;5.69;55.24
5917;BME280;2984;42.656;23.300;2023-01-08T01:51:41;94948.25;;;5.32;54.61
5917;BME280;2984;42.656;23.300;2023-01-08T01:54:14;94947.50;;;4.94;56.71
5917;BME280;2984;42.656;23.300;2023-01-08T01:56:44;94913.69;;;4.92;56.84
5917;BME280;2984;42.656;23.300;2023-01-08T01:59:14;94941.19;;;4.82;57.51
5917;BME280;2984;42.656;23.300;2023-01-08T02:01:43;94944.53;;;4.55;58.12
5917;BME280;2984;42.656;23.300;2023-01-08T02:04:13;94927.00;;;4.32;58.60
5917;BME280;2984;42.656;23.300;2023-01-08T02:06:45;94923.06;;;3.90;60.28
5917;BME280;2984;42.656;23.300;2023-01-08T02:09:25;94934.16;;;4.11;59.63
5917;BME280;2984;42.656;23.300;2023-01-08T02:12:02;94929.44;;;4.37;60.02
5917;BME280;2984;42.656;23.300;2023-01-08T02:14:52;94933.56;;;4.24;60.56
5917;BME280;2984;42.656;23.300;2023-01-08T02:17:32;94938.25;;;6.19;62.04
5917;BME280;2984;42.656;23.300;2023-01-08T02:20:08;94924.38;;;7.77;53.23
5917;BME280;2984;42.656;23.300;2023-01-08T02:23:07;94918.41;;;8.64;50.01
5917;BME280;2984;42.656;23.300;2023-01-08T02:26:05;94924.81;;;9.49;50.00
5917;BME280;2984;42.656;23.300;2023-01-08T02:28:39;94931.59;;;9.95;47.22
5917;BME280;2984;42.656;23.300;2023-01-08T02:31:08;94925.44;;;10.18;46.98
5917;BME280;2984;42.656;23.300;2023-01-08T02:33:38;94915.69;;;10.41;47.70
5917;BME280;2984;42.656;23.300;2023-01-08T02:36:34;94913.81;;;9.75;43.46
5917;BME280;2984;42.656;23.300;2023-01-08T02:39:24;94923.00;;;7.94;48.67
5917;BME280;2984;42.656;23.300;2023-01-08T02:42:14;94898.25;;;7.77;49.22
5917;BME280;2984;42.656;23.300;2023-01-08T02:44:52;94915.09;;;7.45;47.78
5917;BME280;2984;42.656;23.300;2023-01-08T02:47:29;94904.16;;;7.08;51.47
5917;BME280;2984;42.656;23.300;2023-01-08T02:50:09;94902.88;;;6.55;54.18
5917;BME280;2984;42.656;23.300;2023-01-08T02:52:46;94909.53;;;7.93;51.28
5917;BME280;2984;42.656;23.300;2023-01-08T02:55:20;94898.75;;;8.50;51.20
5917;BME280;2984;42.656;23.300;2023-01-08T02:57:52;94885.34;;;7.88;50.25
5917;BME280;2984;42.656;23.300;2023-01-08T03:00:22;94892.19;;;9.28;49.62
5917;BME280;2984;42.656;23.300;2023-01-08T03:03:02;94900.56;;;9.97;48.28
5917;BME280;2984;42.656;23.300;2023-01-08T03:05:33;94890.78;;;10.38;46.49
5917;BME280;2984;42.656;23.300;2023-01-08T03:08:02;94877.28;;;10.56;47.83
5917;BME280;2984;42.656;23.300;2023-01-08T03:10:31;94918.28;;;11.14;46.57
5917;BME280;2984;42.656;23.300;2023-01-08T03:13:07;94906.19;;;9.08;42.78
5917;BME280;2984;42.656;23.300;2023-01-08T03:15:43;94904.09;;;6.65;48.20
5917;BME280;2984;42.656;23.300;2023-01-08T03:18:16;94914.84;;;5.89;50.53
5917;BME280;2984;42.656;23.300;2023-01-08T03:20:47;94925.28;;;4.98;53.16
5917;BME280;2984;42.656;23.300;2023-01-08T03:23:17;94897.16;;;4.73;56.47
5917;BME280;2984;42.656;23.300;2023-01-08T03:25:47;94917.66;;;5.13;54.86
5917;BME280;2984;42.656;23.300;2023-01-08T03:28:21;94828.75;;;3.83;56.82
5917;BME280;2984;42.656;23.300;2023-01-08T03:30:55;94912.97;;;4.20;58.42
5917;BME280;2984;42.656;23.300;2023-01-08T03:33:26;94923.34;;;5.01;57.99
5917;BME280;2984;42.656;23.300;2023-01-08T03:36:00;94920.16;;;5.32;54.38
5917;BME280;2984;42.656;23.300;2023-01-08T03:38:33;94920.94;;;4.84;56.31
5917;BME280;2984;42.656;23.300;2023-01-08T03:41:09;94895.31;;;4.17;58.53
5917;BME280;2984;42.656;23.300;2023-01-08T03:43:43;94912.97;;;4.08;59.07
5917;BME280;2984;42.656;23.300;2023-01-08T03:46:16;94918.59;;;4.20;58.17
5917;BME280;2984;42.656;23.300;2023-01-08T03:48:48;94919.53;;;4.24;59.84
5917;BME280;2984;42.656;23.300;2023-01-08T03:51:17;94902.84;;;4.26;58.94
5917;BME280;2984;42.656;23.300;2023-01-08T03:53:46;94899.28;;;4.61;58.86
5917;BME280;2984;42.656;23.300;2023-01-08T03:56:16;94904.00;;;5.83;55.95
5917;BME280;2984;42.656;23.300;2023-01-08T03:58:47;94909.84;;;6.40;53.16
5917;BME280;2984;42.656;23.300;2023-01-08T04:01:16;94891.13;;;7.01;51.97
5917;BME280;2984;42.656;23.300;2023-01-08T04:03:44;94912.84;;;8.03;51.75
5917;BME280;2984;42.656;23.300;2023-01-08T04:06:13;94913.75;;;9.04;48.06
5917;BME280;2984;42.656;23.300;2023-01-08T04:08:42;94855.91;;;9.22;46.39
5917;BME280;2984;42.656;23.300;2023-01-08T04:11:10;94915.44;;;9.97;47.94
5917;BME280;2984;42.656;23.300;2023-01-08T04:13:39;94919.44;;;10.28;46.10
5917;BME280;2984;42.656;23.300;2023-01-08T04:16:10;94896.94;;;10.32;45.32
5917;BME280;2984;42.656;23.300;2023-01-08T04:18:39;94879.22;;;10.31;43.96
5917;BME280;2984;42.656;23.300;2023-01-08T04:21:08;94910.03;;;10.81;46.63
5917;BME280;2984;42.656;23.300;2023-01-08T04:23:36;94908.13;;;7.92;45.35
5917;BME280;2984;42.656;23.300;2023-01-08T04:26:05;94921.50;;;6.48;49.04
5917;BME280;2984;42.656;23.300;2023-01-08T04:28:34;94922.94;;;5.07;52.49
5917;BME280;2984;42.656;23.300;2023-01-08T04:31:04;94897.75;;;4.23;55.71
5917;BME280;2984;42.656;23.300;2023-01-08T04:33:36;94908.47;;;4.03;57.49
5917;BME280;2984;42.656;23.300;2023-01-08T04:36:05;94916.88;;;4.03;58.17
5917;BME280;2984;42.656;23.300;2023-01-08T04:38:34;94904.19;;;3.79;58.31
5917;BME280;2984;42.656;23.300;2023-01-08T04:41:04;94884.91;;;3.17;60.33
5917;BME280;2984;42.656;23.300;2023-01-08T04:43:33;94887.66;;;3.27;59.85
5917;BME280;2984;42.656;23.300;2023-01-08T04:46:03;94907.91;;;3.48;60.26
5917;BME280;2984;42.656;23.300;2023-01-08T04:48:32;94906.84;;;4.58;62.84
5917;BME280;2984;42.656;23.300;2023-01-08T04:51:04;94910.75;;;5.78;56.15
5917;BME280;2984;42.656;23.300;2023-01-08T04:53:35;94922.63;;;7.41;52.93
5917;BME280;2984;42.656;23.300;2023-01-08T04:56:07;94907.91;;;7.88;49.41
5917;BME280;2984;42.656;23.300;2023-01-08T04:58:37;94879.03;;;7.58;48.67
5917;BME280;2984;42.656;23.300;2023-01-08T05:01:16;94897.16;;;8.78;50.35
5917;BME280;2984;42.656;23.300;2023-01-08T05:03:45;94924.19;;;9.68;49.22
5917;BME280;2984;42.656;23.300;2023-01-08T05:06:17;94934.00;;;9.32;43.09
5917;BME280;2984;42.656;23.300;2023-01-08T05:08:45;94928.91;;;6.41;47.40
5917;BME280;2984;42.656;23.300;2023-01-08T05:11:14;94934.41;;;5.36;51.14
5917;BME280;2984;42.656;23.300;2023-01-08T05:13:43;94934.28;;;4.02;55.25
5917;BME280;2984;42.656;23.300;2023-01-08T05:16:11;94934.94;;;4.23;55.66
5917;BME280;2984;42.656;23.300;2023-01-08T05:18:40;94911.00;;;3.87;57.73
5917;BME280;2984;42.656;23.300;2023-01-08T05:21:09;94911.75;;;4.11;57.44
5917;BME280;2984;42.656;23.300;2023-01-08T05:23:43;94924.91;;;3.97;57.18
5917;BME280;2984;42.656;23.300;2023-01-08T05:26:13;94934.66;;;3.96;58.99
5917;BME280;2984;42.656;23.300;2023-01-08T05:28:43;94925.97;;;3.69;58.40
5917;BME280;2984;42.656;23.300;2023-01-08T05:31:13;94933.75;;;3.70;60.38
5917;BME280;2984;42.656;23.300;2023-01-08T05:33:42;94921.72;;;3.79;60.45
5917;BME280;2984;42.656;23.300;2023-01-08T05:36:11;94922.66;;;3.72;59.89
5917;BME280;2984;42.656;23.300;2023-01-08T05:38:44;94912.13;;;3.38;59.94
5917;BME280;2984;42.656;23.300;2023-01-08T05:41:12;94925.78;;;3.43;58.90
5917;BME280;2984;42.656;23.300;2023-01-08T05:43:41;94928.06;;;3.35;59.01
5917;BME280;2984;42.656;23.300;2023-01-08T05:46:10;94926.75;;;3.48;59.91
5917;BME280;2984;42.656;23.300;2023-01-08T05:48:39;94942.13;;;3.14;60.59
5917;BME280;2984;42.656;23.300;2023-01-08T05:51:07;94926.47;;;3.32;61.34
5917;BME280;2984;42.656;23.300;2023-01-08T05:53:36;94932.50;;;3.50;60.39
5917;BME280;2984;42.656;23.300;2023-01-08T05:56:09;94930.88;;;4.38;57.23
5917;BME280;2984;42.656;23.300;2023-01-08T05:58:38;94936.44;;;5.47;55.04
5917;BME280;2984;42.656;23.300;2023-01-08T06:01:08;94868.97;;;4.34;56.10
5917;BME280;2984;42.656;23.300;2023-01-08T06:03:38;94919.88;;;5.65;55.84
5917;BME280;2984;42.656;23.300;2023-01-08T06:06:07;94921.69;;;7.66;55.19
5917;BME280;2984;42.656;23.300;2023-01-08T06:08:35;94933.97;;;8.65;50.14
5917;BME280;2984;42.656;23.300;2023-01-08T06:11:09;94943.19;;;9.32;49.89
5917;BME280;2984;42.656;23.300;2023-01-08T06:13:40;94938.56;;;9.74;48.60
5917;BME280;2984;42.656;23.300;2023-01-08T06:16:10;94917.69;;;8.16;44.46
5917;BME280;2984;42.656;23.300;2023-01-08T06:18:39;94946.63;;;7.71;48.12
5917;BME280;2984;42.656;23.300;2023-01-08T06:21:07;94942.00;;;6.10;50.97
5917;BME280;2984;42.656;23.300;2023-01-08T06:23:37;94944.31;;;7.38;54.69
5917;BME280;2984;42.656;23.300;2023-01-08T06:26:09;94940.97;;;8.79;52.38
5917;BME280;2984;42.656;23.300;2023-01-08T06:28:38;94929.06;;;9.14;45.51
5917;BME280;2984;42.656;23.300;2023-01-08T06:31:07;94938.75;;;7.54;48.04
5917;BME280;2984;42.656;23.300;2023-01-08T06:33:36;94934.59;;;8.16;51.01
5917;BME280;2984;42.656;23.300;2023-01-08T06:36:05;94930.81;;;9.06;47.00
5917;BME280;2984;42.656;23.300;2023-01-08T06:38:34;94943.88;;;9.48;44.47
5917;BME280;2984;42.656;23.300;2023-01-08T06:41:04;94924.63;;;7.83;46.65
5917;BME280;2984;42.656;23.300;2023-01-08T06:43:37;94956.19;;;8.25;49.83
5917;BME280;2984;42.656;23.300;2023-01-08T06:46:07;94965.72;;;9.30;47.71
5917;BME280;2984;42.656;23.300;2023-01-08T06:48:37;94964.22;;;8.62;46.92
5917;BME280;2984;42.656;23.300;2023-01-08T06:51:06;94949.19;;;7.22;49.41
5917;BME280;2984;42.656;23.300;2023-01-08T06:53:34;94938.34;;;7.17;50.55
5917;BME280;2984;42.656;23.300;2023-01-08T06:56:04;94977.16;;;6.50;52.82
5917;BME280;2984;42.656;23.300;2023-01-08T06:58:38;94927.19;;;5.70;55.19
5917;BME280;2984;42.656;23.300;2023-01-08T07:01:12;94958.66;;;5.80;56.03
5917;BME280;2984;42.656;23.300;2023-01-08T07:03:41;94947.63;;;5.84;55.40
5917;BME280;2984;42.656;23.300;2023-01-08T07:06:13;94966.22;;;5.78;57.62
5917;BME280;2984;42.656;23.300;2023-01-08T07:08:43;94964.03;;;6.40;56.18
5917;BME280;2984;42.656;23.300;2023-01-08T07:11:12;94972.50;;;6.68;54.23
5917;BME280;2984;42.656;23.300;2023-01-08T07:13:43;94872.13;;;5.14;56.80
5917;BME280;2984;42.656;23.300;2023-01-08T07:16:13;94979.03;;;6.72;56.84
5917;BME280;2984;42.656;23.300;2023-01-08T07:18:42;94967.09;;;7.29;53.99
5917;BME280;2984;42.656;23.300;2023-01-08T07:21:11;94984.81;;;8.33;51.09
5917;BME280;2984;42.656;23.300;2023-01-08T07:23:39;94985.69;;;9.68;50.10
5917;BME280;2984;42.656;23.300;2023-01-08T07:26:10;94984.06;;;10.33;48.36
5917;BME280;2984;42.656;23.300;2023-01-08T07:28:38;94954.34;;;10.72;46.85
5917;BME280;2984;42.656;23.300;2023-01-08T07:31:10;94971.03;;;10.26;45.72
5917;BME280;2984;42.656;23.300;2023-01-08T07:33:38;94989.88;;;10.95;45.93
5917;BME280;2984;42.656;23.300;2023-01-08T07:36:08;94978.66;;;11.38;44.59
5917;BME280;2984;42.656;23.300;2023-01-08T07:38:36;94977.34;;;11.63;42.96
5917;BME280;2984;42.656;23.300;2023-01-08T07:41:05;94969.19;;;11.73;43.36
5917;BME280;2984;42.656;23.300;2023-01-08T07:43:34;94985.19;;;12.28;42.51
5917;BME280;2984;42.656;23.300;2023-01-08T07:46:03;94983.59;;;12.47;43.05
5917;BME280;2984;42.656;23.300;2023-01-08T07:48:34;94970.91;;;12.04;41.11
5917;BME280;2984;42.656;23.300;2023-01-08T07:51:05;94995.31;;;11.28;42.93
5917;BME280;2984;42.656;23.300;2023-01-08T07:53:35;94981.41;;;9.67;45.19
5917;BME280;2984;42.656;23.300;2023-01-08T07:56:06;94989.66;;;8.17;49.69
5917;BME280;2984;42.656;23.300;2023-01-08T07:58:35;94989.47;;;8.58;51.56
5917;BME280;2984;42.656;23.300;2023-01-08T08:01:07;94987.63;;;8.49;50.35
5917;BME280;2984;42.656;23.300;2023-01-08T08:03:40;94977.25;;;9.18;49.08
5917;BME280;2984;42.656;23.300;2023-01-08T08:06:09;94974.59;;;9.56;49.49
5917;BME280;2984;42.656;23.300;2023-01-08T08:08:38;94961.84;;;9.90;45.62
5917;BME280;2984;42.656;23.300;2023-01-08T08:11:07;94991.03;;;10.30;47.55
5917;BME280;2984;42.656;23.300;2023-01-08T08:13:36;94981.88;;;10.14;46.30
5917;BME280;2984;42.656;23.300;2023-01-08T08:16:09;94994.81;;;10.02;46.51
5917;BME280;2984;42.656;23.300;2023-01-08T08:18:41;94991.84;;;10.33;45.80
5917;BME280;2984;42.656;23.300;2023-01-08T08:21:10;94983.06;;;10.45;44.51
5917;BME280;2984;42.656;23.300;2023-01-08T08:23:39;94953.47;;;10.48;47.11
5917;BME280;2984;42.656;23.300;2023-01-08T08:26:08;94981.59;;;9.37;46.45
5917;BME280;2984;42.656;23.300;2023-01-08T08:28:36;94976.50;;;8.84;51.08
5917;BME280;2984;42.656;23.300;2023-01-08T08:31:05;94993.09;;;8.61;48.80
5917;BME280;2984;42.656;23.300;2023-01-08T08:33:34;94989.28;;;9.19;47.52
5917;BME280;2984;42.656;23.300;2023-01-08T08:36:06;94991.34;;;9.01;48.23
5917;BME280;2984;42.656;23.300;2023-01-08T08:38:35;94995.56;;;8.84;47.90
5917;BME280;2984;42.656;23.300;2023-01-08T08:41:04;94991.97;;;9.66;47.05
5917;BME280;2984;42.656;23.300;2023-01-08T08:43:33;94989.00;;;10.71;46.18
5917;BME280;2984;42.656;23.300;2023-01-08T08:46:02;94993.88;;;11.08;44.52
5917;BME280;2984;42.656;23.300;2023-01-08T08:48:30;94996.69;;;10.30;44.49
5917;BME280;2984;42.656;23.300;2023-01-08T08:50:59;94990.94;;;11.45;43.52
5917;BME280;2984;42.656;23.300;2023-01-08T08:53:30;94985.25;;;12.08;43.14
5917;BME280;2984;42.656;23.300;2023-01-08T08:55:59;94986.34;;;12.43;42.10
5917;BME280;2984;42.656;23.300;2023-01-08T08:58:31;94989.34;;;12.49;40.91
5917;BME280;2984;42.656;23.300;2023-01-08T09:01:01;94991.41;;;12.70;40.40
5917;BME280;2984;42.656;23.300;2023-01-08T09:03:33;94986.16;;;12.85;41.34
5917;BME280;2984;42.656;23.300;2023-01-08T09:06:02;94981.41;;;12.22;40.51
5917;BME280;2984;42.656;23.300;2023-01-08T09:08:33;94988.78;;;12.31;40.28
5917;BME280;2984;42.656;23.300;2023-01-08T09:11:04;94966.69;;;12.51;43.60
5917;BME280;2984;42.656;23.300;2023-01-08T09:13:35;94983.19;;;12.80;41.23
5917;BME280;2984;42.656;23.300;2023-01-08T09:16:04;94980.16;;;12.74;39.65
5917;BME280;2984;42.656;23.300;2023-01-08T09:18:33;94921.03;;;12.69;41.31
5917;BME280;2984;42.656;23.300;2023-01-08T09:21:06;94943.13;;;12.96;39.86
5917;BME280;2984;42.656;23.300;2023-01-08T09:23:40;94884.53;;;11.22;40.44
5917;BME280;2984;42.656;23.300;2023-01-08T09:26:12;94953.06;;;9.31;46.26
5917;BME280;2984;42.656;23.300;2023-01-08T09:28:40;94948.25;;;10.60;45.92
5917;BME280;2984;42.656;23.300;2023-01-08T09:31:09;94972.34;;;10.61;43.43
5917;BME280;2984;42.656;23.300;2023-01-08T09:33:38;94959.72;;;11.03;44.01
5917;BME280;2984;42.656;23.300;2023-01-08T09:36:09;94935.81;;;10.89;43.42
5917;BME280;2984;42.656;23.300;2023-01-08T09:38:41;94946.28;;;11.46;43.16
5917;BME280;2984;42.656;23.300;2023-01-08T09:41:14;94949.59;;;11.60;42.12
5917;BME280;2984;42.656;23.300;2023-01-08T09:43:47;94933.75;;;12.42;48.65
5917;BME280;2984;42.656;23.300;2023-01-08T09:46:18;94939.50;;;12.94;44.45
5917;BME280;2984;42.656;23.300;2023-01-08T09:48:50;94865.00;;;11.76;41.72
5917;BME280;2984;42.656;23.300;2023-01-08T09:51:20;94921.00;;;12.43;42.96
5917;BME280;2984;42.656;23.300;2023-01-08T09:53:54;94931.84;;;13.26;43.02
5917;BME280;2984;42.656;23.300;2023-01-08T09:58:59;94903.66;;;11.65;41.32
5917;BME280;2984;42.656;23.300;2023-01-08T10:01:37;94906.38;;;11.39;41.66
5917;BME280;2984;42.656;23.300;2023-01-08T10:04:13;94883.88;;;12.37;43.32
5917;BME280;2984;42.656;23.300;2023-01-08T10:06:49;94901.16;;;12.45;40.29
5917;BME280;2984;42.656;23.300;2023-01-08T10:09:25;94888.88;;;11.91;45.44
5917;BME280;2984;42.656;23.300;2023-01-08T10:11:56;94902.84;;;12.54;43.37
5917;BME280;2984;42.656;23.300;2023-01-08T10:14:29;94887.81;;;10.93;42.62
5917;BME280;2984;42.656;23.300;2023-01-08T10:17:01;94896.22;;;10.31;44.80
5917;BME280;2984;42.656;23.300;2023-01-08T10:19:32;94892.09;;;10.17;45.92
5917;BME280;2984;42.656;23.300;2023-01-08T10:22:01;94886.13;;;11.27;43.73
5917;BME280;2984;42.656;23.300;2023-01-08T10:24:35;94856.09;;;12.09;45.20
5917;BME280;2984;42.656;23.300;2023-01-08T10:27:05;94878.34;;;12.67;47.78
5917;BME280;2984;42.656;23.300;2023-01-08T10:29:34;94879.34;;;12.77;42.55
5917;BME280;2984;42.656;23.300;2023-01-08T10:32:07;94872.88;;;13.01;45.15
5917;BME280;2984;42.656;23.300;2023-01-08T10:34:43;94869.97;;;13.25;40.05
5917;BME280;2984;42.656;23.300;2023-01-08T10:37:24;94873.28;;;13.15;42.80
5917;BME280;2984;42.656;23.300;2023-01-08T10:40:00;94846.75;;;13.34;41.83
5917;BME280;2984;42.656;23.300;2023-01-08T10:42:33;94856.78;;;13.37;40.70
5917;BME280;2984;42.656;23.300;2023-01-08T10:45:05;94849.03;;;13.14;42.27
5917;BME280;2984;42.656;23.300;2023-01-08T10:47:38;94836.59;;;13.27;43.64
5917;BME280;2984;42.656;23.300;2023-01-08T10:50:18;94814.72;;;13.34;40.17
5917;BME280;2984;42.656;23.300;2023-01-08T10:52:52;94815.94;;;13.25;42.07
5917;BME280;2984;42.656;23.300;2023-01-08T10:55:26;94830.09;;;13.23;39.85
5917;BME280;2984;42.656;23.300;2023-01-08T10:57:57;94842.75;;;13.18;40.13
5917;BME280;2984;42.656;23.300;2023-01-08T11:00:28;94845.31;;;12.79;40.51
5917;BME280;2984;42.656;23.300;2023-01-08T11:02:59;94802.63;;;13.05;43.35
5917;BME280;2984;42.656;23.300;2023-01-08T11:05:30;94833.69;;;12.97;40.39
5917;BME280;2984;42.656;23.300;2023-01-08T11:08:00;94823.59;;;13.18;44.24
5917;BME280;2984;42.656;23.300;2023-01-08T11:10:34;94804.19;;;12.82;40.32
5917;BME280;2984;42.656;23.300;2023-01-08T11:13:05;94822.72;;;13.13;42.92
5917;BME280;2984;42.656;23.300;2023-01-08T11:15:37;94824.81;;;13.39;42.31
5917;BME280;2984;42.656;23.300;2023-01-08T11:18:12;94813.06;;;13.55;43.61
5917;BME280;2984;42.656;23.300;2023-01-08T11:20:43;94816.53;;;13.81;40.96
5917;BME280;2984;42.656;23.300;2023-01-08T11:23:17;94819.97;;;14.07;41.14
5917;BME280;2984;42.656;23.300;2023-01-08T11:26:02;94816.06;;;13.91;38.69
5917;BME280;2984;42.656;23.300;2023-01-08T11:28:44;94796.44;;;13.43;39.72
5917;BME280;2984;42.656;23.300;2023-01-08T11:31:20;94798.13;;;13.54;38.88
5917;BME280;2984;42.656;23.300;2023-01-08T11:33:55;94781.09;;;13.56;40.71
5917;BME280;2984;42.656;23.300;2023-01-08T11:36:28;94809.28;;;14.06;43.87
5917;BME280;2984;42.656;23.300;2023-01-08T11:39:01;94796.25;;;13.65;40.04
5917;BME280;2984;42.656;23.300;2023-01-08T11:41:56;94786.66;;;13.82;41.44
5917;BME280;2984;42.656;23.300;2023-01-08T11:44:38;94805.47;;;14.29;44.28
5917;BME280;2984;42.656;23.300;2023-01-08T11:47:13;94797.38;;;13.51;43.43
5917;BME280;2984;42.656;23.300;2023-01-08T11:50:01;94770.63;;;12.77;39.93
5917;BME280;2984;42.656;23.300;2023-01-08T11:52:40;94755.38;;;13.20;42.40
5917;BME280;2984;42.656;23.300;2023-01-08T11:55:27;94789.41;;;13.46;41.01
5917;BME280;2984;42.656;23.300;2023-01-08T11:58:10;94766.28;;;13.30;39.81
5917;BME280;2984;42.656;23.300;2023-01-08T12:03:24;94791.91;;;13.62;39.24
5917;BME280;2984;42.656;23.300;2023-01-08T12:16:15;94655.84;;;13.20;42.03
5917;BME280;2984;42.656;23.300;2023-01-08T12:21:26;94746.63;;;13.42;38.69
5917;BME280;2984;42.656;23.300;2023-01-08T12:24:17;94719.75;;;13.17;42.72
5917;BME280;2984;42.656;23.300;2023-01-08T12:26:57;94759.78;;;13.25;39.11
5917;BME280;2984;42.656;23.300;2023-01-08T12:29:42;94732.69;;;13.22;40.13
5917;BME280;2984;42.656;23.300;2023-01-08T12:32:25;94758.59;;;12.78;40.04
5917;BME280;2984;42.656;23.300;2023-01-08T12:34:58;94751.94;;;13.26;40.00
5917;BME280;2984;42.656;23.300;2023-01-08T12:42:32;94726.09;;;13.45;39.12
5917;BME280;2984;42.656;23.300;2023-01-08T12:45:03;94741.41;;;13.30;39.43
5917;BME280;2984;42.656;23.300;2023-01-08T12:47:37;94738.75;;;13.38;39.85
5917;BME280;2984;42.656;23.300;2023-01-08T12:50:23;94707.00;;;13.18;38.78
5917;BME280;2984;42.656;23.300;2023-01-08T12:52:58;94696.63;;;11.91;41.07
5917;BME280;2984;42.656;23.300;2023-01-08T12:55:36;94737.25;;;11.98;41.65
5917;BME280;2984;42.656;23.300;2023-01-08T12:58:20;94730.38;;;12.87;41.25
5917;BME280;2984;42.656;23.300;2023-01-08T13:00:58;94741.34;;;12.70;40.83
5917;BME280;2984;42.656;23.300;2023-01-08T13:03:32;94731.81;;;13.15;42.15
5917;BME280;2984;42.656;23.300;2023-01-08T13:06:06;94725.31;;;13.13;40.73
5917;BME280;2984;42.656;23.300;2023-01-08T13:08:36;94732.13;;;12.18;41.43
5917;BME280;2984;42.656;23.300;2023-01-08T13:11:06;94697.47;;;12.50;40.90
5917;BME280;2984;42.656;23.300;2023-01-08T13:13:37;94734.81;;;12.38;41.23
5917;BME280;2984;42.656;23.300;2023-01-08T13:16:20;94682.31;;;12.13;41.08
5917;BME280;2984;42.656;23.300;2023-01-08T13:18:53;94703.31;;;12.02;41.11
5917;BME280;2984;42.656;23.300;2023-01-08T13:21:31;94719.94;;;12.67;44.02
5917;BME280;2984;42.656;23.300;2023-01-08T13:24:06;94725.81;;;13.33;42.29
5917;BME280;2984;42.656;23.300;2023-01-08T13:26:51;94674.13;;;13.13;41.47
5917;BME280;2984;42.656;23.300;2023-01-08T13:29:35;94728.22;;;13.77;41.34
5917;BME280;2984;42.656;23.300;2023-01-08T13:32:24;94730.44;;;13.82;40.47
5917;BME280;2984;42.656;23.300;2023-01-08T13:35:19;94729.91;;;13.90;42.06
5917;BME280;2984;42.656;23.300;2023-01-08T13:37:49;94722.63;;;13.83;40.28
5917;BME280;2984;42.656;23.300;2023-01-08T13:43:19;94702.50;;;13.73;40.54
5917;BME280;2984;42.656;23.300;2023-01-08T13:46:02;94722.28;;;13.67;40.42
5917;BME280;2984;42.656;23.300;2023-01-08T13:48:35;94707.91;;;13.59;39.66
5917;BME280;2984;42.656;23.300;2023-01-08T13:51:37;94728.69;;;13.65;40.20
5917;BME280;2984;42.656;23.300;2023-01-08T13:54:23;94722.13;;;13.59;40.70
5917;BME280;2984;42.656;23.300;2023-01-08T13:57:00;94717.13;;;13.27;41.04
5917;BME280;2984;42.656;23.300;2023-01-08T13:59:40;94726.53;;;13.04;41.61
5917;BME280;2984;42.656;23.300;2023-01-08T14:02:26;94724.66;;;12.57;41.70
5917;BME280;2984;42.656;23.300;2023-01-08T14:04:56;94720.44;;;12.32;42.13
5917;BME280;2984;42.656;23.300;2023-01-08T14:07:28;94715.78;;;12.44;41.58
5917;BME280;2984;42.656;23.300;2023-01-08T14:10:06;94731.09;;;12.87;42.26
5917;BME280;2984;42.656;23.300;2023-01-08T14:12:36;94695.03;;;12.38;42.00